createdAt,value
2018-10-18T00:00:10.252Z,94.93
2018-10-18T00:01:10.134Z,95.32
2018-10-18T00:02:10.082Z,95.22
2018-10-18T00:03:10.031Z,96.46
2018-10-18T00:04:09.832Z,95.51
2018-10-18T00:05:09.734Z,95.41
2018-10-18T00:06:09.663Z,95.22
2018-10-18T00:07:09.543Z,95.22
2018-10-18T00:08:09.552Z,95.12
2018-10-18T00:09:09.350Z,95.12
2018-10-18T00:10:09.356Z,95.32
2018-10-18T00:11:09.176Z,95.03
2018-10-18T00:12:09.088Z,95.08
2018-10-18T00:13:08.963Z,94.70
2018-10-18T00:14:08.931Z,94.56
2018-10-18T00:15:08.773Z,93.60
2018-10-18T00:16:08.695Z,92.75
2018-10-18T00:17:08.580Z,92.08
2018-10-18T00:18:08.561Z,91.22
2018-10-18T00:19:08.389Z,91.03
2018-10-18T00:20:08.341Z,90.66
2018-10-18T00:21:08.214Z,90.08
2018-10-18T00:22:08.098Z,89.32
2018-10-18T00:23:08.002Z,89.23
2018-10-18T00:24:07.990Z,89.51
2018-10-18T00:25:07.817Z,89.42
2018-10-18T00:26:07.788Z,90.18
2018-10-18T00:27:07.621Z,90.37
2018-10-18T00:28:07.519Z,89.89
2018-10-18T00:29:07.424Z,89.65
2018-10-18T00:30:07.408Z,90.61
2018-10-18T00:31:07.249Z,90.42
2018-10-18T00:32:07.224Z,92.36
2018-10-18T00:33:07.040Z,92.36
2018-10-18T00:34:06.946Z,92.36
2018-10-18T00:35:06.866Z,92.36
2018-10-18T00:36:06.814Z,91.42
2018-10-18T00:37:06.655Z,91.70
2018-10-18T00:38:06.626Z,91.61
2018-10-18T00:39:06.465Z,92.36
2018-10-18T00:40:06.368Z,92.36
2018-10-18T00:41:06.272Z,91.42
2018-10-18T00:42:06.248Z,91.42
2018-10-18T00:43:06.081Z,90.89
2018-10-18T00:44:06.020Z,90.94
2018-10-18T00:45:05.886Z,90.66
2018-10-18T00:46:05.789Z,90.42
2018-10-18T00:47:05.706Z,89.70
2018-10-18T00:48:05.651Z,89.04
2018-10-18T00:49:05.503Z,88.75
2018-10-18T00:50:05.427Z,89.14
2018-10-18T00:51:05.311Z,90.37
2018-10-18T00:52:05.227Z,91.22
2018-10-18T00:53:05.113Z,90.56
2018-10-18T00:54:05.048Z,90.47
2018-10-18T00:55:04.919Z,90.56
2018-10-18T00:56:04.862Z,90.66
2018-10-18T00:57:04.744Z,90.56
2018-10-18T00:58:04.633Z,89.94
2018-10-18T00:59:04.531Z,89.04
2018-10-18T01:00:04.463Z,88.46
2018-10-18T01:01:04.341Z,87.61
2018-10-18T01:02:04.310Z,87.04
2018-10-18T01:03:04.146Z,86.09
2018-10-18T01:04:04.052Z,85.80
2018-10-18T01:05:03.953Z,85.24
2018-10-18T01:06:03.913Z,85.71
2018-10-18T01:07:03.782Z,85.90
2018-10-18T01:08:03.680Z,86.32
2018-10-18T01:09:03.572Z,86.51
2018-10-18T01:10:03.480Z,86.80
2018-10-18T01:11:03.386Z,87.18
2018-10-18T01:12:03.366Z,87.94
2018-10-18T01:13:03.184Z,89.18
2018-10-18T01:14:03.132Z,90.03
2018-10-18T01:15:02.993Z,88.42
2018-10-18T01:16:02.892Z,87.27
2018-10-18T01:17:02.823Z,87.37
2018-10-18T01:18:02.757Z,87.56
2018-10-18T01:19:02.606Z,87.27
2018-10-18T01:20:02.526Z,88.42
2018-10-18T01:21:02.416Z,88.70
2018-10-18T01:22:02.328Z,89.75
2018-10-18T01:23:02.218Z,91.32
2018-10-18T01:24:02.154Z,91.51
2018-10-18T01:25:02.026Z,90.75
2018-10-18T01:26:02.087Z,90.75
2018-10-18T01:27:01.848Z,90.42
2018-10-18T01:28:01.736Z,90.42
2018-10-18T01:29:01.642Z,90.14
2018-10-18T01:30:01.642Z,89.94
2018-10-18T01:31:01.450Z,89.37
2018-10-18T01:32:01.412Z,89.00
2018-10-18T01:33:01.254Z,88.80
2018-10-18T01:34:01.157Z,89.37
2018-10-18T01:35:01.061Z,89.18
2018-10-18T01:36:01.004Z,88.61
2018-10-18T01:37:00.883Z,87.95
2018-10-18T01:38:00.822Z,86.71
2018-10-18T01:39:00.674Z,86.99
2018-10-18T01:40:00.685Z,86.52
2018-10-18T01:41:00.482Z,85.57
2018-10-18T01:42:00.428Z,84.91
2018-10-18T01:43:00.291Z,84.52
2018-10-18T01:44:00.259Z,83.48
2018-10-18T01:45:00.102Z,83.00
2018-10-18T01:46:00.002Z,81.58
2018-10-18T01:47:00.020Z,80.53
2018-10-18T01:47:59.844Z,79.20
2018-10-18T01:48:59.709Z,78.10
2018-10-18T01:49:59.623Z,77.15
2018-10-18T01:50:59.518Z,76.57
2018-10-18T01:51:59.437Z,75.96
2018-10-18T01:52:59.323Z,75.78
2018-10-18T01:53:59.360Z,75.68
2018-10-18T01:54:59.146Z,76.06
2018-10-18T01:55:59.060Z,75.96
2018-10-18T01:56:58.955Z,75.78
2018-10-18T01:57:58.839Z,75.78
2018-10-18T01:58:58.741Z,74.63
2018-10-18T01:59:58.696Z,74.44
2018-10-18T02:00:58.653Z,74.67
2018-10-18T02:01:58.502Z,74.48
2018-10-18T02:02:58.369Z,73.82
2018-10-18T02:03:58.258Z,73.63
2018-10-18T02:04:58.165Z,73.82
2018-10-18T02:05:58.075Z,74.10
2018-10-18T02:06:57.986Z,76.01
2018-10-18T02:07:57.978Z,76.67
2018-10-18T02:08:57.776Z,76.20
2018-10-18T02:09:57.680Z,75.34
2018-10-18T02:10:57.582Z,75.34
2018-10-18T02:11:57.535Z,75.53
2018-10-18T02:12:57.403Z,76.96
2018-10-18T02:13:57.291Z,77.24
2018-10-18T02:14:57.303Z,78.38
2018-10-18T02:15:57.162Z,78.77
2018-10-18T02:16:57.007Z,78.48
2018-10-18T02:17:56.953Z,78.77
2018-10-18T02:18:56.838Z,78.67
2018-10-18T02:19:56.716Z,78.86
2018-10-18T02:20:56.616Z,79.05
2018-10-18T02:21:56.642Z,79.33
2018-10-18T02:22:56.422Z,79.14
2018-10-18T02:23:56.382Z,79.14
2018-10-18T02:24:56.278Z,79.24
2018-10-18T02:25:56.137Z,78.57
2018-10-18T02:26:56.040Z,78.77
2018-10-18T02:27:55.962Z,78.77
2018-10-18T02:28:55.950Z,78.86
2018-10-18T02:29:55.752Z,78.77
2018-10-18T02:30:55.652Z,78.19
2018-10-18T02:31:55.556Z,77.72
2018-10-18T02:32:55.478Z,77.91
2018-10-18T02:33:55.368Z,77.91
2018-10-18T02:34:55.264Z,77.72
2018-10-18T02:35:55.322Z,78.00
2018-10-18T02:36:55.076Z,78.77
2018-10-18T02:37:54.993Z,78.57
2018-10-18T02:38:54.878Z,77.91
2018-10-18T02:39:54.788Z,76.76
2018-10-18T02:40:54.686Z,76.86
2018-10-18T02:41:54.610Z,77.00
2018-10-18T02:42:54.612Z,76.71
2018-10-18T02:43:54.397Z,76.61
2018-10-18T02:44:54.298Z,77.28
2018-10-18T02:45:54.201Z,77.37
2018-10-18T02:46:54.111Z,78.52
2018-10-18T02:47:54.087Z,79.80
2018-10-18T02:48:53.919Z,82.04
2018-10-18T02:49:53.819Z,82.90
2018-10-18T02:50:53.722Z,83.75
2018-10-18T02:51:53.625Z,85.37
2018-10-18T02:52:53.545Z,84.99
2018-10-18T02:53:53.484Z,85.37
2018-10-18T02:54:53.336Z,83.75
2018-10-18T02:55:53.242Z,83.75
2018-10-18T02:56:53.247Z,84.23
2018-10-18T02:57:53.063Z,84.42
2018-10-18T02:58:52.949Z,84.52
2018-10-18T02:59:52.904Z,84.52
2018-10-18T03:00:52.757Z,84.61
2018-10-18T03:01:52.661Z,84.42
2018-10-18T03:02:52.581Z,84.23
2018-10-18T03:03:52.575Z,83.85
2018-10-18T03:04:52.374Z,83.56
2018-10-18T03:05:52.341Z,83.37
2018-10-18T03:06:52.182Z,83.37
2018-10-18T03:07:52.099Z,81.85
2018-10-18T03:08:51.989Z,80.33
2018-10-18T03:09:51.895Z,79.75
2018-10-18T03:10:51.794Z,79.22
2018-10-18T03:11:51.699Z,79.41
2018-10-18T03:12:51.617Z,79.99
2018-10-18T03:13:51.509Z,80.27
2018-10-18T03:14:51.408Z,80.46
2018-10-18T03:15:51.340Z,80.84
2018-10-18T03:16:51.214Z,82.18
2018-10-18T03:17:51.137Z,82.75
2018-10-18T03:18:51.027Z,82.27
2018-10-18T03:19:50.929Z,83.80
2018-10-18T03:20:50.830Z,83.41
2018-10-18T03:21:50.735Z,83.98
2018-10-18T03:22:50.659Z,84.46
2018-10-18T03:23:50.544Z,85.28
2018-10-18T03:24:50.449Z,85.18
2018-10-18T03:25:50.353Z,84.70
2018-10-18T03:26:50.252Z,83.65
2018-10-18T03:27:50.175Z,83.65
2018-10-18T03:28:50.061Z,83.09
2018-10-18T03:29:49.967Z,83.65
2018-10-18T03:30:49.867Z,84.42
2018-10-18T03:31:49.773Z,85.24
2018-10-18T03:32:49.691Z,83.14
2018-10-18T03:33:49.583Z,83.04
2018-10-18T03:34:49.487Z,81.90
2018-10-18T03:35:49.390Z,81.05
2018-10-18T03:36:49.292Z,79.81
2018-10-18T03:37:49.212Z,79.38
2018-10-18T03:38:49.099Z,78.52
2018-10-18T03:39:49.004Z,78.80
2018-10-18T03:40:48.904Z,78.04
2018-10-18T03:41:48.811Z,77.43
2018-10-18T03:42:48.731Z,77.34
2018-10-18T03:43:48.622Z,77.34
2018-10-18T03:44:48.524Z,78.00
2018-10-18T03:45:48.424Z,78.57
2018-10-18T03:46:48.327Z,77.53
2018-10-18T03:47:48.247Z,77.34
2018-10-18T03:48:48.135Z,76.48
2018-10-18T03:49:48.071Z,76.01
2018-10-18T03:50:47.943Z,76.01
2018-10-18T03:51:47.847Z,76.29
2018-10-18T03:52:47.768Z,76.57
2018-10-18T03:53:47.654Z,76.10
2018-10-18T03:54:47.558Z,75.43
2018-10-18T03:55:47.463Z,76.01
2018-10-18T03:56:47.377Z,76.10
2018-10-18T03:57:47.283Z,75.53
2018-10-18T03:58:47.174Z,74.67
2018-10-18T03:59:47.149Z,74.39
2018-10-18T04:00:46.984Z,74.29
2018-10-18T04:01:46.886Z,73.72
2018-10-18T04:02:46.804Z,73.82
2018-10-18T04:03:46.689Z,73.44
2018-10-18T04:04:46.600Z,73.63
2018-10-18T04:05:46.499Z,72.39
2018-10-18T04:06:46.402Z,71.15
2018-10-18T04:07:46.322Z,70.30
2018-10-18T04:08:46.210Z,68.59
2018-10-18T04:09:46.114Z,67.73
2018-10-18T04:10:46.028Z,66.68
2018-10-18T04:11:45.918Z,65.64
2018-10-18T04:12:45.835Z,65.06
2018-10-18T04:13:45.747Z,64.40
2018-10-18T04:14:45.635Z,64.11
2018-10-18T04:15:45.534Z,64.21
2018-10-18T04:16:45.439Z,64.02
2018-10-18T04:17:45.361Z,63.17
2018-10-18T04:18:45.266Z,63.73
2018-10-18T04:19:45.148Z,63.45
2018-10-18T04:20:45.052Z,63.83
2018-10-18T04:21:44.953Z,63.73
2018-10-18T04:22:44.861Z,63.79
2018-10-18T04:23:44.776Z,63.07
2018-10-18T04:24:44.666Z,62.97
2018-10-18T04:25:44.602Z,62.59
2018-10-18T04:26:44.574Z,61.83
2018-10-18T04:27:44.380Z,61.83
2018-10-18T04:28:44.299Z,60.88
2018-10-18T04:29:44.183Z,60.31
2018-10-18T04:30:44.085Z,59.99
2018-10-18T04:31:43.991Z,60.31
2018-10-18T04:32:43.900Z,60.75
2018-10-18T04:33:43.922Z,60.57
2018-10-18T04:34:43.700Z,60.28
2018-10-18T04:35:43.603Z,60.66
2018-10-18T04:36:43.507Z,60.38
2018-10-18T04:37:43.411Z,60.85
2018-10-18T04:38:43.342Z,61.04
2018-10-18T04:39:43.222Z,60.94
2018-10-18T04:40:43.139Z,61.42
2018-10-18T04:41:43.024Z,61.13
2018-10-18T04:42:42.930Z,61.58
2018-10-18T04:43:42.846Z,61.10
2018-10-18T04:44:42.741Z,61.10
2018-10-18T04:45:42.641Z,61.01
2018-10-18T04:46:42.539Z,61.10
2018-10-18T04:47:42.552Z,60.53
2018-10-18T04:48:42.401Z,60.91
2018-10-18T04:49:42.252Z,60.44
2018-10-18T04:50:42.152Z,59.90
2018-10-18T04:51:42.060Z,59.05
2018-10-18T04:52:41.958Z,59.14
2018-10-18T04:53:41.881Z,57.71
2018-10-18T04:54:41.769Z,56.85
2018-10-18T04:55:41.673Z,55.15
2018-10-18T04:56:41.619Z,53.65
2018-10-18T04:57:41.478Z,52.03
2018-10-18T04:58:41.397Z,50.79
2018-10-18T04:59:41.285Z,49.75
2018-10-18T05:00:41.189Z,48.61
2018-10-18T05:01:41.091Z,48.13
2018-10-18T05:02:41.024Z,47.66
2018-10-18T05:03:40.913Z,46.70
2018-10-18T05:04:40.802Z,46.88
2018-10-18T05:05:40.704Z,46.14
2018-10-18T05:06:40.605Z,46.40
2018-10-18T05:07:40.511Z,46.20
2018-10-18T05:08:40.431Z,45.73
2018-10-18T05:09:40.317Z,45.83
2018-10-18T05:10:40.221Z,45.83
2018-10-18T05:11:40.127Z,45.92
2018-10-18T05:12:40.080Z,45.92
2018-10-18T05:13:39.951Z,45.64
2018-10-18T05:14:39.835Z,45.73
2018-10-18T05:15:39.740Z,45.83
2018-10-18T05:16:39.639Z,45.64
2018-10-18T05:17:39.542Z,45.73
2018-10-18T05:18:39.462Z,45.73
2018-10-18T05:19:39.353Z,46.11
2018-10-18T05:20:39.271Z,45.45
2018-10-18T05:21:39.156Z,45.45
2018-10-18T05:22:39.067Z,44.97
2018-10-18T05:23:39.407Z,44.68
2018-10-18T05:24:38.870Z,44.87
2018-10-18T05:25:38.859Z,44.78
2018-10-18T05:26:38.672Z,44.40
2018-10-18T05:27:38.578Z,44.59
2018-10-18T05:28:38.496Z,44.49
2018-10-18T05:29:38.382Z,44.02
2018-10-18T05:30:38.400Z,44.02
2018-10-18T05:31:38.263Z,44.02
2018-10-18T05:32:38.097Z,44.12
2018-10-18T05:33:38.013Z,44.02
2018-10-18T05:34:37.902Z,43.93
2018-10-18T05:35:37.805Z,44.31
2018-10-18T05:36:37.709Z,44.67
2018-10-18T05:37:37.801Z,45.14
2018-10-18T05:38:37.529Z,45.33
2018-10-18T05:39:37.442Z,45.33
2018-10-18T05:40:37.321Z,45.23
2018-10-18T05:41:37.222Z,45.14
2018-10-18T05:42:37.125Z,45.04
2018-10-18T05:43:37.047Z,45.42
2018-10-18T05:44:37.035Z,45.52
2018-10-18T05:45:36.833Z,45.42
2018-10-18T05:46:36.744Z,45.42
2018-10-18T05:47:36.644Z,45.04
2018-10-18T05:48:36.564Z,44.57
2018-10-18T05:49:36.448Z,45.61
2018-10-18T05:50:36.349Z,45.33
2018-10-18T05:51:36.254Z,45.42
2018-10-18T05:52:36.161Z,45.33
2018-10-18T05:53:36.168Z,45.42
2018-10-18T05:54:35.965Z,45.14
2018-10-18T05:55:35.867Z,45.07
2018-10-18T05:56:35.770Z,45.26
2018-10-18T05:57:35.675Z,45.26
2018-10-18T05:58:35.696Z,45.16
2018-10-18T05:59:35.502Z,44.68
2018-10-18T06:00:35.385Z,44.68
2018-10-18T06:01:35.287Z,44.68
2018-10-18T06:02:35.192Z,45.07
2018-10-18T06:03:35.099Z,44.97
2018-10-18T06:04:35.114Z,44.68
2018-10-18T06:05:34.902Z,44.68
2018-10-18T06:06:34.805Z,44.78
2018-10-18T06:07:34.705Z,44.68
2018-10-18T06:08:34.617Z,44.68
2018-10-18T06:09:34.564Z,45.07
2018-10-18T06:10:34.481Z,45.07
2018-10-18T06:11:34.322Z,44.97
2018-10-18T06:12:34.223Z,44.33
2018-10-18T06:13:34.128Z,44.33
2018-10-18T06:14:34.047Z,44.33
2018-10-18T06:15:33.936Z,44.23
2018-10-18T06:16:33.838Z,44.42
2018-10-18T06:17:33.743Z,44.04
2018-10-18T06:18:33.646Z,44.16
2018-10-18T06:19:33.564Z,43.68
2018-10-18T06:20:33.450Z,43.59
2018-10-18T06:21:33.356Z,43.78
2018-10-18T06:22:33.308Z,43.59
2018-10-18T06:23:33.164Z,43.87
2018-10-18T06:24:33.084Z,44.16
2018-10-18T06:25:32.968Z,44.26
2018-10-18T06:26:32.877Z,44.82
2018-10-18T06:27:32.779Z,45.40
2018-10-18T06:28:32.683Z,45.40
2018-10-18T06:29:32.605Z,45.40
2018-10-18T06:30:32.489Z,45.32
2018-10-18T06:31:32.395Z,45.89
2018-10-18T06:32:32.297Z,45.70
2018-10-18T06:33:32.205Z,45.54
2018-10-18T06:34:32.129Z,45.92
2018-10-18T06:35:32.013Z,46.49
2018-10-18T06:36:31.917Z,46.61
2018-10-18T06:37:31.828Z,48.23
2018-10-18T06:38:31.728Z,50.61
2018-10-18T06:39:31.648Z,56.71
2018-10-18T06:40:31.537Z,59.51
2018-10-18T06:41:31.441Z,61.51
2018-10-18T06:42:31.351Z,61.51
2018-10-18T06:43:31.254Z,61.41
2018-10-18T06:44:31.173Z,64.69
2018-10-18T06:45:31.063Z,68.88
2018-10-18T06:46:30.966Z,69.93
2018-10-18T06:47:30.924Z,72.03
2018-10-18T06:48:30.784Z,72.83
2018-10-18T06:49:30.759Z,73.22
2018-10-18T06:50:30.593Z,74.08
2018-10-18T06:51:30.502Z,75.74
2018-10-18T06:52:30.408Z,78.31
2018-10-18T06:53:30.318Z,80.27
2018-10-18T06:54:30.243Z,84.19
2018-10-18T06:55:30.131Z,90.30
2018-10-18T06:56:30.035Z,99.48
2018-10-18T06:57:29.945Z,99.99
2018-10-18T06:58:29.853Z,99.99
2018-10-18T06:59:29.775Z,99.99
2018-10-18T07:00:29.778Z,99.99
2018-10-18T07:01:29.572Z,99.99
2018-10-18T07:02:29.484Z,99.99
2018-10-18T07:03:29.393Z,99.99
2018-10-18T07:04:29.318Z,99.99
2018-10-18T07:05:29.208Z,99.99
2018-10-18T07:06:29.120Z,99.99
2018-10-18T07:07:29.025Z,99.99
2018-10-18T07:08:28.934Z,99.99
2018-10-18T07:09:28.863Z,99.99
2018-10-18T07:10:28.753Z,99.99
2018-10-18T07:11:28.663Z,99.99
2018-10-18T07:12:28.573Z,99.99
2018-10-18T07:13:28.482Z,99.99
2018-10-18T07:14:28.409Z,99.99
2018-10-18T07:15:28.301Z,99.99
2018-10-18T07:16:28.208Z,99.99
2018-10-18T07:17:28.132Z,99.99
2018-10-18T07:18:28.034Z,99.99
2018-10-18T07:19:27.967Z,99.99
2018-10-18T07:20:27.851Z,99.99
2018-10-18T07:21:27.756Z,99.99
2018-10-18T07:22:27.669Z,99.99
2018-10-18T07:23:27.579Z,99.99
2018-10-18T07:24:27.540Z,99.99
2018-10-18T07:25:27.534Z,99.99
2018-10-18T07:26:27.308Z,99.99
2018-10-18T07:27:27.218Z,99.99
2018-10-18T07:28:27.228Z,99.99
2018-10-18T07:29:27.055Z,99.99
2018-10-18T07:30:26.946Z,99.99
2018-10-18T07:31:26.852Z,99.99
2018-10-18T07:32:26.765Z,99.99
2018-10-18T07:33:26.676Z,99.99
2018-10-18T07:34:26.598Z,99.99
2018-10-18T07:35:26.603Z,99.99
2018-10-18T07:36:26.404Z,99.99
2018-10-18T07:37:26.309Z,99.99
2018-10-18T07:38:26.219Z,99.99
2018-10-18T07:39:26.142Z,99.99
2018-10-18T07:40:26.062Z,99.99
2018-10-18T07:41:25.946Z,99.99
2018-10-18T07:42:25.958Z,99.99
2018-10-18T07:43:25.764Z,99.99
2018-10-18T07:44:25.673Z,99.99
2018-10-18T07:45:25.598Z,99.99
2018-10-18T07:46:25.491Z,99.99
2018-10-18T07:47:25.400Z,99.99
2018-10-18T07:48:25.308Z,99.99
2018-10-18T07:49:25.321Z,99.99
2018-10-18T07:50:25.139Z,99.99
2018-10-18T07:51:25.032Z,99.99
2018-10-18T07:52:24.941Z,99.99
2018-10-18T07:53:24.882Z,99.99
2018-10-18T07:54:24.761Z,99.99
2018-10-18T07:55:24.682Z,99.99
2018-10-18T07:56:24.681Z,99.99
2018-10-18T07:57:24.488Z,99.99
2018-10-18T07:58:24.393Z,99.99
2018-10-18T07:59:24.300Z,99.99
2018-10-18T08:00:24.249Z,99.99
2018-10-18T08:01:24.119Z,99.99
2018-10-18T08:02:24.026Z,99.99
2018-10-18T08:03:24.037Z,99.99
2018-10-18T08:04:23.848Z,99.99
2018-10-18T08:05:23.767Z,99.99
2018-10-18T08:06:23.659Z,99.99
2018-10-18T08:07:23.569Z,99.99
2018-10-18T08:08:23.478Z,99.99
2018-10-18T08:09:23.385Z,99.99
2018-10-18T08:10:23.431Z,99.99
2018-10-18T08:11:23.206Z,99.99
2018-10-18T08:12:23.109Z,99.99
2018-10-18T08:13:23.020Z,99.99
2018-10-18T08:14:22.926Z,99.99
2018-10-18T08:15:22.867Z,99.99
2018-10-18T08:16:22.741Z,99.99
2018-10-18T08:17:22.781Z,99.99
2018-10-18T08:18:22.558Z,99.99
2018-10-18T08:19:22.470Z,99.99
2018-10-18T08:20:22.395Z,99.99
2018-10-18T08:21:22.294Z,99.99
2018-10-18T08:22:22.248Z,99.99
2018-10-18T08:23:22.101Z,99.99
2018-10-18T08:24:22.116Z,99.99
2018-10-18T08:25:21.932Z,99.99
2018-10-18T08:26:21.826Z,99.99
2018-10-18T08:27:21.738Z,99.99
2018-10-18T08:28:21.642Z,99.99
2018-10-18T08:29:21.548Z,99.99
2018-10-18T08:30:21.478Z,99.99
2018-10-18T08:31:21.557Z,99.99
2018-10-18T08:32:21.272Z,99.99
2018-10-18T08:33:21.180Z,99.99
2018-10-18T08:34:21.094Z,99.99
2018-10-18T08:35:21.015Z,99.99
2018-10-18T08:36:20.907Z,99.99
2018-10-18T08:37:20.825Z,99.99
2018-10-18T08:38:20.805Z,99.99
2018-10-18T08:39:20.630Z,99.99
2018-10-18T08:40:20.561Z,99.99
2018-10-18T08:41:20.447Z,99.99
2018-10-18T08:42:20.356Z,99.99
2018-10-18T08:43:20.264Z,99.99
2018-10-18T08:44:20.218Z,99.99
2018-10-18T08:45:20.093Z,99.99
2018-10-18T08:46:19.988Z,99.99
2018-10-18T08:47:19.901Z,99.99
2018-10-18T08:48:19.807Z,99.99
2018-10-18T08:49:19.726Z,99.99
2018-10-18T08:50:19.636Z,99.99
2018-10-18T08:51:19.529Z,99.99
2018-10-18T08:52:19.435Z,99.99
2018-10-18T08:53:19.342Z,99.99
2018-10-18T08:54:19.252Z,99.99
2018-10-18T08:55:19.273Z,99.99
2018-10-18T08:56:19.071Z,99.99
2018-10-18T08:57:18.975Z,99.99
2018-10-18T08:58:18.887Z,99.99
2018-10-18T08:59:18.918Z,99.99
2018-10-18T09:00:18.719Z,99.99
2018-10-18T09:01:18.681Z,99.99
2018-10-18T09:02:18.519Z,99.99
2018-10-18T09:03:18.432Z,99.99
2018-10-18T09:04:18.335Z,99.99
2018-10-18T09:05:18.263Z,99.99
2018-10-18T09:06:18.156Z,99.99
2018-10-18T09:07:18.111Z,99.99
2018-10-18T09:08:17.974Z,99.99
2018-10-18T09:09:17.888Z,99.49
2018-10-18T09:10:17.811Z,97.28
2018-10-18T09:11:17.705Z,97.38
2018-10-18T09:12:17.650Z,98.39
2018-10-18T09:13:17.603Z,99.16
2018-10-18T09:14:17.440Z,99.64
2018-10-18T09:15:17.366Z,96.22
2018-10-18T09:16:17.260Z,94.87
2018-10-18T09:17:17.180Z,93.96
2018-10-18T09:18:17.088Z,93.77
2018-10-18T09:19:17.045Z,93.72
2018-10-18T09:20:16.928Z,91.45
2018-10-18T09:21:16.821Z,89.57
2018-10-18T09:22:16.734Z,88.45
2018-10-18T09:23:16.649Z,87.88
2018-10-18T09:24:16.577Z,88.70
2018-10-18T09:25:16.589Z,90.72
2018-10-18T09:26:16.409Z,91.26
2018-10-18T09:27:16.303Z,89.53
2018-10-18T09:28:16.219Z,89.53
2018-10-18T09:29:16.132Z,88.65
2018-10-18T09:30:16.098Z,90.53
2018-10-18T09:31:15.997Z,91.30
2018-10-18T09:32:15.874Z,90.48
2018-10-18T09:33:15.795Z,90.69
2018-10-18T09:34:15.707Z,92.57
2018-10-18T09:35:15.636Z,94.15
2018-10-18T09:36:15.552Z,95.98
2018-10-18T09:37:15.482Z,96.90
2018-10-18T09:38:15.385Z,98.91
2018-10-18T09:39:15.279Z,99.01
2018-10-18T09:40:15.200Z,97.71
2018-10-18T09:41:15.128Z,96.94
2018-10-18T09:42:15.029Z,97.19
2018-10-18T09:43:15.019Z,98.53
2018-10-18T09:44:14.902Z,97.09
2018-10-18T09:45:14.772Z,96.47
2018-10-18T09:46:14.715Z,97.86
2018-10-18T09:47:14.597Z,98.86
2018-10-18T09:48:14.515Z,99.99
2018-10-18T09:49:14.496Z,99.99
2018-10-18T09:50:14.344Z,99.99
2018-10-18T09:51:14.276Z,99.99
2018-10-18T09:52:14.168Z,99.99
2018-10-18T09:53:14.084Z,98.82
2018-10-18T09:54:14.104Z,99.44
2018-10-18T09:55:13.983Z,98.68
2018-10-18T09:56:13.939Z,97.96
2018-10-18T09:57:13.741Z,99.54
2018-10-18T09:58:13.655Z,99.97
2018-10-18T09:59:13.567Z,99.99
2018-10-18T10:00:13.484Z,99.99
2018-10-18T10:01:13.595Z,99.99
2018-10-18T10:02:13.308Z,99.99
2018-10-18T10:03:13.225Z,99.99
2018-10-18T10:04:13.260Z,99.99
2018-10-18T10:05:13.050Z,99.99
2018-10-18T10:06:12.979Z,99.99
2018-10-18T10:07:12.886Z,99.99
2018-10-18T10:08:12.909Z,99.99
2018-10-18T10:09:12.704Z,99.99
2018-10-18T10:10:12.625Z,99.99
2018-10-18T10:11:12.545Z,98.96
2018-10-18T10:12:12.447Z,96.61
2018-10-18T10:13:12.469Z,94.97
2018-10-18T10:14:12.269Z,93.72
2018-10-18T10:15:12.288Z,90.72
2018-10-18T10:16:12.111Z,88.02
2018-10-18T10:17:12.096Z,85.36
2018-10-18T10:18:11.984Z,83.18
2018-10-18T10:19:11.876Z,83.95
2018-10-18T10:20:11.751Z,83.47
2018-10-18T10:21:11.682Z,83.56
2018-10-18T10:22:11.688Z,82.21
2018-10-18T10:23:11.498Z,81.24
2018-10-18T10:24:11.412Z,79.83
2018-10-18T10:25:11.401Z,79.39
2018-10-18T10:26:11.260Z,78.91
2018-10-18T10:27:11.159Z,77.88
2018-10-18T10:28:11.074Z,77.98
2018-10-18T10:29:11.093Z,77.92
2018-10-18T10:30:10.941Z,76.46
2018-10-18T10:31:10.917Z,75.85
2018-10-18T10:32:10.737Z,75.89
2018-10-18T10:33:10.756Z,75.21
2018-10-18T10:34:10.571Z,74.98
2018-10-18T10:35:10.592Z,77.71
2018-10-18T10:36:10.526Z,80.14
2018-10-18T10:37:10.347Z,82.96
2018-10-18T10:38:10.240Z,82.61
2018-10-18T10:39:10.169Z,85.52
2018-10-18T10:40:10.102Z,86.87
2018-10-18T10:41:10.044Z,86.14
2018-10-18T10:42:09.968Z,83.19
2018-10-18T10:43:09.923Z,80.53
2018-10-18T10:44:09.784Z,80.82
2018-10-18T10:45:09.757Z,78.15
2018-10-18T10:46:09.676Z,77.90
2018-10-18T10:47:09.488Z,76.68
2018-10-18T10:48:09.416Z,76.78
2018-10-18T10:49:09.362Z,75.81
2018-10-18T10:50:09.411Z,75.17
2018-10-18T10:51:09.230Z,75.23
2018-10-18T10:52:09.153Z,74.85
2018-10-18T10:53:08.984Z,75.17
2018-10-18T10:54:08.951Z,76.64
2018-10-18T10:55:08.821Z,76.57
2018-10-18T10:56:08.814Z,77.88
2018-10-18T10:57:08.697Z,79.33
2018-10-18T10:58:08.691Z,78.94
2018-10-18T10:59:08.571Z,79.66
2018-10-18T11:00:08.481Z,79.41
2018-10-18T11:01:08.340Z,77.96
2018-10-18T11:02:08.251Z,77.21
2018-10-18T11:03:08.224Z,79.10
2018-10-18T11:04:08.075Z,78.08
2018-10-18T11:05:07.987Z,79.72
2018-10-18T11:06:08.007Z,78.11
2018-10-18T11:07:07.822Z,78.94
2018-10-18T11:08:07.780Z,78.75
2018-10-18T11:09:07.696Z,78.41
2018-10-18T11:10:07.573Z,76.70
2018-10-18T11:11:07.510Z,74.42
2018-10-18T11:12:07.482Z,74.23
2018-10-18T11:13:07.328Z,74.27
2018-10-18T11:14:07.258Z,73.24
2018-10-18T11:15:07.211Z,71.28
2018-10-18T11:16:07.086Z,69.53
2018-10-18T11:17:07.012Z,68.89
2018-10-18T11:18:06.910Z,69.21
2018-10-18T11:19:06.821Z,71.14
2018-10-18T11:20:06.747Z,70.37
2018-10-18T11:21:06.732Z,69.40
2018-10-18T11:22:06.588Z,70.37
2018-10-18T11:23:06.491Z,69.34
2018-10-18T11:24:06.524Z,68.18
2018-10-18T11:25:06.339Z,67.69
2018-10-18T11:26:06.335Z,67.60
2018-10-18T11:27:06.190Z,67.79
2018-10-18T11:28:06.078Z,69.01
2018-10-18T11:29:05.994Z,68.85
2018-10-18T11:30:05.975Z,66.75
2018-10-18T11:31:05.833Z,67.34
2018-10-18T11:32:05.777Z,68.53
2018-10-18T11:33:05.815Z,69.05
2018-10-18T11:34:05.590Z,69.43
2018-10-18T11:35:05.507Z,71.62
2018-10-18T11:36:05.492Z,71.42
2018-10-18T11:37:05.363Z,70.94
2018-10-18T11:38:05.308Z,71.23
2018-10-18T11:39:05.182Z,71.72
2018-10-18T11:40:05.100Z,71.94
2018-10-18T11:41:05.018Z,70.78
2018-10-18T11:42:04.977Z,70.94
2018-10-18T11:43:04.855Z,70.10
2018-10-18T11:44:04.850Z,69.49
2018-10-18T11:45:04.687Z,71.39
2018-10-18T11:46:04.605Z,71.39
2018-10-18T11:47:04.547Z,71.55
2018-10-18T11:48:04.450Z,71.94
2018-10-18T11:49:04.361Z,71.88
2018-10-18T11:50:04.316Z,71.30
2018-10-18T11:51:04.195Z,72.30
2018-10-18T11:52:04.246Z,70.07
2018-10-18T11:53:04.028Z,68.82
2018-10-18T11:54:03.974Z,68.82
2018-10-18T11:55:03.864Z,68.49
2018-10-18T11:56:03.838Z,68.01
2018-10-18T11:57:03.717Z,68.72
2018-10-18T11:58:03.619Z,71.10
2018-10-18T11:59:03.625Z,70.72
2018-10-18T12:00:03.467Z,70.52
2018-10-18T12:01:03.386Z,71.10
2018-10-18T12:02:03.336Z,71.04
2018-10-18T12:03:03.202Z,70.17
2018-10-18T12:04:03.119Z,70.10
2018-10-18T12:05:03.062Z,69.59
2018-10-18T12:06:02.957Z,70.14
2018-10-18T12:07:02.886Z,70.65
2018-10-18T12:08:02.854Z,70.62
2018-10-18T12:09:02.706Z,70.48
2018-10-18T12:10:02.625Z,70.72
2018-10-18T12:11:02.590Z,70.81
2018-10-18T12:12:02.473Z,69.98
2018-10-18T12:13:02.374Z,70.17
2018-10-18T12:14:02.314Z,69.88
2018-10-18T12:15:02.217Z,69.49
2018-10-18T12:16:02.123Z,68.59
2018-10-18T12:17:02.075Z,69.30
2018-10-18T12:18:01.958Z,68.66
2018-10-18T12:19:01.930Z,68.17
2018-10-18T12:20:01.864Z,67.59
2018-10-18T12:21:01.709Z,69.24
2018-10-18T12:22:01.643Z,68.01
2018-10-18T12:23:01.553Z,68.46
2018-10-18T12:24:01.459Z,68.62
2018-10-18T12:25:01.377Z,70.52
2018-10-18T12:26:01.307Z,71.06
2018-10-18T12:27:01.310Z,72.09
2018-10-18T12:28:01.124Z,71.88
2018-10-18T12:29:01.079Z,71.39
2018-10-18T12:30:00.961Z,70.94
2018-10-18T12:31:00.880Z,71.78
2018-10-18T12:32:00.845Z,71.30
2018-10-18T12:33:00.708Z,71.10
2018-10-18T12:34:00.627Z,71.84
2018-10-18T12:35:00.561Z,73.35
2018-10-18T12:36:00.457Z,75.88
2018-10-18T12:37:00.388Z,76.10
2018-10-18T12:38:00.343Z,74.85
2018-10-18T12:39:00.216Z,75.14
2018-10-18T12:40:00.124Z,75.05
2018-10-18T12:41:00.198Z,74.18
2018-10-18T12:42:00.150Z,73.06
2018-10-18T12:42:59.871Z,73.11
2018-10-18T12:43:59.822Z,74.24
2018-10-18T12:44:59.705Z,74.47
2018-10-18T12:45:59.619Z,73.66
2018-10-18T12:46:59.555Z,74.24
2018-10-18T12:47:59.479Z,74.40
2018-10-18T12:48:59.370Z,74.49
2018-10-18T12:49:59.334Z,75.61
2018-10-18T12:50:59.199Z,76.76